Time;durP1;ratioP1;P1;durP2;ratioP2;P2;SDS_P1;SDS_P2;PMS_P1;PMS_P2;Temp;Humidity;BMP_temperature;BMP_pressure;BME280_temperature;BME280_humidity;BME280_pressure;Samples;Min_cycle;Max_cycle;Signal;HPM_P1;HPM_P2
2021/10/15 00:00:52;;;;;;;15.48;10.90;;;;;;;;;;10257629;28;20065;-68
2021/10/15 00:05:51;;;;;;;14.18;11.73;;;;;;;;;;10260396;28;20481;-68
2021/10/15 00:10:49;;;;;;;12.68;10.93;;;;;;;;;;10258342;28;20068;-68
2021/10/15 00:15:47;;;;;;;13.65;10.68;;;;;;;;;;10257556;28;20083;-67
2021/10/15 00:20:47;;;;;;;11.45;10.25;;;;;;;;;;10257321;28;20044;-67
2021/10/15 00:25:45;;;;;;;12.85;11.05;;;;;;;;;;10259710;28;20045;-68
2021/10/15 00:30:44;;;;;;;12.07;10.05;;;;;;;;;;10256558;28;20069;-68
2021/10/15 00:35:42;;;;;;;11.43;9.90;;;;;;;;;;10258917;28;20478;-68
2021/10/15 00:40:42;;;;;;;15.40;10.07;;;;;;;;;;10256735;28;20095;-68
2021/10/15 00:45:40;;;;;;;14.00;11.02;;;;;;;;;;10258137;28;20060;-67
2021/10/15 00:50:38;;;;;;;13.10;9.80;;;;;;;;;;10257635;28;20068;-67
2021/10/15 00:55:37;;;;;;;11.93;10.48;;;;;;;;;;10257740;28;20072;-68
2021/10/15 01:00:37;;;;;;;12.63;10.77;;;;;;;;;;10257655;28;20064;-67
2021/10/15 01:05:35;;;;;;;12.23;9.95;;;;;;;;;;10258536;28;20496;-68
2021/10/15 01:10:33;;;;;;;11.55;10.10;;;;;;;;;;10256054;28;20065;-68
2021/10/15 01:15:32;;;;;;;12.18;10.35;;;;;;;;;;10257617;28;20071;-68
2021/10/15 01:20:32;;;;;;;11.18;10.05;;;;;;;;;;10255342;28;20079;-67
2021/10/15 01:25:33;;;;;;;13.10;9.95;;;;;;;;;;10255234;28;20060;-68
2021/10/15 01:30:31;;;;;;;14.07;9.55;;;;;;;;;;10255198;28;20080;-68
2021/10/15 01:35:29;;;;;;;11.25;9.93;;;;;;;;;;10257173;28;20095;-67
2021/10/15 01:40:29;;;;;;;11.90;10.15;;;;;;;;;;10253855;28;20049;-68
2021/10/15 01:45:28;;;;;;;11.65;10.25;;;;;;;;;;10254888;28;20045;-68
2021/10/15 01:50:27;;;;;;;12.13;10.07;;;;;;;;;;10256786;28;20096;-67
2021/10/15 01:55:25;;;;;;;13.48;10.30;;;;;;;;;;10254829;28;20080;-68
2021/10/15 02:00:25;;;;;;;12.13;9.95;;;;;;;;;;10256139;28;20539;-67
2021/10/15 02:05:23;;;;;;;14.05;11.20;;;;;;;;;;10254685;28;20032;-67
2021/10/15 02:10:21;;;;;;;13.02;10.82;;;;;;;;;;10254762;28;20061;-68
2021/10/15 02:15:20;;;;;;;11.65;10.45;;;;;;;;;;10254880;28;20068;-68
2021/10/15 02:20:20;;;;;;;14.02;11.38;;;;;;;;;;10255266;28;20052;-68
2021/10/15 02:25:19;;;;;;;12.65;11.07;;;;;;;;;;10263280;28;20065;-68
2021/10/15 02:30:18;;;;;;;13.07;10.75;;;;;;;;;;10263022;28;20084;-68
2021/10/15 02:35:17;;;;;;;37.10;25.70;;;;;;;;;;10261403;28;20053;-68
2021/10/15 02:40:17;;;;;;;15.73;12.57;;;;;;;;;;10261246;28;20046;-68
2021/10/15 02:45:15;;;;;;;11.32;10.13;;;;;;;;;;10263020;28;20048;-68
2021/10/15 02:50:13;;;;;;;13.10;10.10;;;;;;;;;;10261466;28;20451;-68
2021/10/15 02:55:12;;;;;;;12.35;10.07;;;;;;;;;;10263124;28;20053;-68
2021/10/15 03:00:12;;;;;;;12.60;10.75;;;;;;;;;;10260981;28;20045;-68
2021/10/15 03:05:10;;;;;;;12.80;10.98;;;;;;;;;;10260766;28;20033;-68
2021/10/15 03:10:09;;;;;;;13.52;11.90;;;;;;;;;;10260720;28;20072;-68
2021/10/15 03:15:08;;;;;;;14.32;11.25;;;;;;;;;;10262136;28;20042;-67
2021/10/15 03:20:09;;;;;;;14.55;11.77;;;;;;;;;;10251225;28;20077;-68
2021/10/15 03:25:07;;;;;;;14.60;12.05;;;;;;;;;;10260153;28;20025;-68
2021/10/15 03:30:07;;;;;;;14.45;12.90;;;;;;;;;;10262444;28;20122;-68
2021/10/15 03:35:05;;;;;;;15.90;11.73;;;;;;;;;;10262259;28;20040;-68
2021/10/15 03:40:06;;;;;;;16.48;13.98;;;;;;;;;;10260046;28;20431;-68
2021/10/15 03:45:05;;;;;;;15.02;12.35;;;;;;;;;;10260674;28;20044;-68
2021/10/15 03:50:04;;;;;;;15.82;12.13;;;;;;;;;;10259105;28;20482;-68
2021/10/15 03:55:03;;;;;;;13.25;11.80;;;;;;;;;;10260103;28;20458;-68
2021/10/15 04:00:02;;;;;;;15.85;12.68;;;;;;;;;;10259448;28;20037;-68
2021/10/15 04:05:09;;;;;;;17.15;13.18;;;;;;;;;;10263004;28;20049;-68
2021/10/15 04:10:09;;;;;;;15.05;13.35;;;;;;;;;;10259090;28;20076;-68
2021/10/15 04:15:09;;;;;;;17.70;14.45;;;;;;;;;;10261523;28;20069;-68
2021/10/15 04:20:09;;;;;;;18.42;14.07;;;;;;;;;;10261722;28;20434;-69
2021/10/15 04:25:08;;;;;;;17.80;14.65;;;;;;;;;;10260124;28;20037;-68
2021/10/15 04:30:06;;;;;;;19.98;15.07;;;;;;;;;;10266649;28;20052;-68
2021/10/15 04:35:07;;;;;;;15.43;13.57;;;;;;;;;;10267149;28;20485;-68
2021/10/15 04:40:05;;;;;;;17.02;15.23;;;;;;;;;;10265329;28;20429;-68
2021/10/15 04:45:04;;;;;;;16.50;13.73;;;;;;;;;;10256285;28;20081;-68
2021/10/15 04:50:02;;;;;;;18.25;13.93;;;;;;;;;;10255090;28;20084;-68
2021/10/15 04:55:02;;;;;;;21.25;15.55;;;;;;;;;;10260776;28;20076;-67
2021/10/15 05:00:01;;;;;;;16.27;14.57;;;;;;;;;;10255705;28;20072;-68
2021/10/15 05:04:59;;;;;;;17.58;15.15;;;;;;;;;;10259351;28;20068;-68
2021/10/15 05:09:58;;;;;;;19.42;14.25;;;;;;;;;;10259793;28;20091;-68
2021/10/15 05:14:57;;;;;;;15.20;13.38;;;;;;;;;;10259162;28;20077;-68
2021/10/15 05:19:56;;;;;;;19.40;16.42;;;;;;;;;;10257710;28;20457;-68
2021/10/15 05:24:54;;;;;;;18.92;15.30;;;;;;;;;;10255688;28;20077;-68
2021/10/15 05:29:52;;;;;;;15.85;12.85;;;;;;;;;;10259926;28;20470;-67
2021/10/15 05:34:52;;;;;;;19.08;15.98;;;;;;;;;;10257514;28;20061;-68
2021/10/15 05:39:51;;;;;;;17.45;14.80;;;;;;;;;;10263565;28;20076;-68
2021/10/15 05:44:49;;;;;;;16.88;14.65;;;;;;;;;;10256619;28;20462;-69
2021/10/15 05:49:48;;;;;;;16.42;13.90;;;;;;;;;;10258673;28;20071;-68
2021/10/15 05:54:54;;;;;;;19.73;14.77;;;;;;;;;;10257097;28;20064;-69
2021/10/15 05:59:52;;;;;;;19.13;15.25;;;;;;;;;;10258043;28;20080;-69
2021/10/15 06:15:30;;;;;;;16.52;14.57;;;;;;;;;;10238117;28;20091;-69
2021/10/15 06:20:29;;;;;;;17.92;14.30;;;;;;;;;;10231032;28;20052;-68
2021/10/15 06:25:28;;;;;;;23.83;16.90;;;;;;;;;;10253069;28;20076;-70
2021/10/15 06:30:27;;;;;;;22.20;18.40;;;;;;;;;;10252272;28;20073;-69
2021/10/15 06:35:25;;;;;;;20.67;15.93;;;;;;;;;;10252915;28;20064;-69
2021/10/15 06:40:23;;;;;;;20.85;17.23;;;;;;;;;;10251633;28;20522;-69
2021/10/15 06:45:23;;;;;;;22.70;19.08;;;;;;;;;;10257284;28;20048;-69
2021/10/15 06:50:21;;;;;;;21.58;19.15;;;;;;;;;;10251864;28;20142;-70
2021/10/15 06:55:20;;;;;;;28.02;21.40;;;;;;;;;;10250573;28;20084;-69
2021/10/15 07:00:19;;;;;;;30.02;23.25;;;;;;;;;;10256733;28;20041;-69
2021/10/15 07:05:18;;;;;;;25.23;21.10;;;;;;;;;;10249471;28;20076;-68
2021/10/15 07:10:17;;;;;;;22.17;19.00;;;;;;;;;;10252568;28;20056;-68
2021/10/15 07:15:16;;;;;;;20.98;17.15;;;;;;;;;;10254935;28;20072;-68
2021/10/15 07:20:15;;;;;;;21.25;18.45;;;;;;;;;;10255339;28;20068;-68
2021/10/15 07:25:15;;;;;;;26.50;19.80;;;;;;;;;;10260181;28;20163;-68
2021/10/15 07:30:13;;;;;;;24.20;20.10;;;;;;;;;;10252748;28;20083;-68
2021/10/15 07:35:12;;;;;;;23.42;19.20;;;;;;;;;;10253108;28;20065;-68
2021/10/15 07:40:11;;;;;;;26.83;22.25;;;;;;;;;;10253534;28;20510;-68
2021/10/15 07:45:11;;;;;;;31.65;23.25;;;;;;;;;;10259683;28;20049;-68
2021/10/15 07:50:28;;;;;;;24.38;20.30;;;;;;;;;;10259860;28;20103;-68
2021/10/15 07:55:27;;;;;;;23.85;20.45;;;;;;;;;;10260872;28;20511;-69
2021/10/15 08:00:26;;;;;;;29.20;23.95;;;;;;;;;;10260204;28;20061;-68
2021/10/15 08:05:25;;;;;;;32.28;26.45;;;;;;;;;;10259401;28;20073;-68
2021/10/15 08:10:23;;;;;;;32.67;25.75;;;;;;;;;;10259968;28;20044;-68
2021/10/15 08:15:22;;;;;;;28.10;24.42;;;;;;;;;;10258466;28;20057;-70
2021/10/15 08:20:22;;;;;;;34.03;25.00;;;;;;;;;;10259197;28;20077;-69
2021/10/15 08:25:20;;;;;;;53.17;33.83;;;;;;;;;;10256463;28;20053;-69
2021/10/15 08:30:19;;;;;;;50.40;32.88;;;;;;;;;;10257795;28;20045;-69
2021/10/15 08:35:17;;;;;;;26.50;22.90;;;;;;;;;;10257327;28;20076;-68
2021/10/15 08:40:17;;;;;;;31.30;24.88;;;;;;;;;;10256574;28;20525;-71
2021/10/15 08:45:16;;;;;;;30.23;24.45;;;;;;;;;;10256735;28;20037;-69
2021/10/15 08:50:14;;;;;;;29.92;23.15;;;;;;;;;;10252322;28;20475;-69
2021/10/15 08:55:12;;;;;;;29.10;22.75;;;;;;;;;;10249152;28;20495;-70
2021/10/15 09:00:22;;;;;;;28.65;23.15;;;;;;;;;;10251558;28;20029;-70
2021/10/15 09:05:28;;;;;;;31.38;24.95;;;;;;;;;;10258283;28;20048;-69
2021/10/15 09:10:30;;;;;;;27.52;23.88;;;;;;;;;;10254827;28;20044;-70
2021/10/15 09:15:33;;;;;;;33.88;26.42;;;;;;;;;;10256011;28;20077;-69
2021/10/15 09:20:34;;;;;;;33.03;27.02;;;;;;;;;;10255472;28;20049;-69
2021/10/15 09:25:40;;;;;;;37.58;27.98;;;;;;;;;;10256562;28;20458;-67
2021/10/15 09:30:41;;;;;;;53.97;33.33;;;;;;;;;;10256174;28;20061;-68
2021/10/15 09:35:39;;;;;;;61.45;37.90;;;;;;;;;;10256541;28;20383;-67
2021/10/15 09:40:39;;;;;;;35.47;26.05;;;;;;;;;;10253501;28;20052;-68
2021/10/15 09:45:38;;;;;;;35.45;28.15;;;;;;;;;;10257996;28;20033;-69
2021/10/15 09:50:38;;;;;;;32.72;27.17;;;;;;;;;;10260581;28;20076;-69
2021/10/15 09:55:37;;;;;;;30.60;25.70;;;;;;;;;;10255787;28;20094;-69
2021/10/15 10:00:36;;;;;;;33.03;25.88;;;;;;;;;;10256718;28;20045;-69
2021/10/15 10:05:35;;;;;;;32.65;27.05;;;;;;;;;;10254532;28;20069;-69
2021/10/15 10:10:40;;;;;;;32.90;26.85;;;;;;;;;;10255821;28;20065;-69
2021/10/15 10:15:39;;;;;;;32.08;24.85;;;;;;;;;;10243691;28;20124;-69
2021/10/15 10:20:38;;;;;;;33.97;27.13;;;;;;;;;;10261979;28;20522;-69
2021/10/15 10:25:37;;;;;;;33.88;25.92;;;;;;;;;;10251760;28;20060;-68
2021/10/15 10:30:39;;;;;;;34.80;27.40;;;;;;;;;;10251580;28;20079;-68
2021/10/15 10:35:38;;;;;;;41.67;28.00;;;;;;;;;;10255442;28;20064;-68
2021/10/15 10:40:36;;;;;;;37.10;27.70;;;;;;;;;;10250538;28;20044;-68
2021/10/15 10:45:35;;;;;;;34.05;27.65;;;;;;;;;;10256998;28;20069;-68
2021/10/15 10:50:35;;;;;;;36.38;26.48;;;;;;;;;;10263529;28;20048;-68
2021/10/15 10:55:34;;;;;;;33.72;28.73;;;;;;;;;;10258390;28;20073;-68
2021/10/15 11:00:32;;;;;;;40.92;30.05;;;;;;;;;;10260774;28;20075;-69
2021/10/15 11:05:36;;;;;;;39.15;30.83;;;;;;;;;;10262845;28;20055;-69
2021/10/15 11:10:39;;;;;;;44.67;33.88;;;;;;;;;;10267914;28;20040;-69
2021/10/15 11:15:38;;;;;;;40.33;30.63;;;;;;;;;;10265183;28;20068;-68
2021/10/15 11:20:38;;;;;;;42.45;32.80;;;;;;;;;;10262531;28;20483;-68
2021/10/15 11:25:37;;;;;;;43.28;32.20;;;;;;;;;;10266628;28;20080;-68
2021/10/15 11:30:37;;;;;;;41.05;31.13;;;;;;;;;;10247574;28;20037;-68
2021/10/15 11:35:35;;;;;;;46.45;35.13;;;;;;;;;;10262747;28;20091;-69
2021/10/15 11:40:36;;;;;;;38.30;29.95;;;;;;;;;;10262522;28;20064;-69
2021/10/15 11:45:36;;;;;;;47.90;35.60;;;;;;;;;;10255691;28;20037;-69
2021/10/15 11:50:39;;;;;;;47.03;32.95;;;;;;;;;;10259366;28;20053;-70
2021/10/15 11:55:39;;;;;;;43.03;30.77;;;;;;;;;;10252048;28;20073;-70
2021/10/15 12:00:38;;;;;;;42.75;34.42;;;;;;;;;;10254604;28;20068;-69
2021/10/15 12:05:36;;;;;;;59.80;41.70;;;;;;;;;;10255025;28;20068;-69
2021/10/15 12:10:34;;;;;;;72.90;40.65;;;;;;;;;;10255935;28;20045;-69
2021/10/15 12:15:34;;;;;;;70.28;41.72;;;;;;;;;;10252864;28;20080;-69
2021/10/15 12:20:32;;;;;;;65.78;40.80;;;;;;;;;;10255553;28;20076;-70
2021/10/15 12:25:31;;;;;;;54.60;37.65;;;;;;;;;;10256614;28;20080;-70
2021/10/15 12:30:30;;;;;;;116.32;61.85;;;;;;;;;;10257998;28;20432;-69
2021/10/15 12:35:29;;;;;;;55.15;37.83;;;;;;;;;;10258477;28;20072;-69
2021/10/15 12:40:29;;;;;;;41.75;32.65;;;;;;;;;;10256071;28;20057;-69
2021/10/15 12:45:29;;;;;;;38.25;30.40;;;;;;;;;;10256048;28;20095;-69
2021/10/15 12:50:28;;;;;;;38.78;30.52;;;;;;;;;;10258049;28;20065;-69
2021/10/15 12:55:28;;;;;;;39.70;31.17;;;;;;;;;;10258016;28;20434;-69
2021/10/15 13:00:26;;;;;;;40.65;31.42;;;;;;;;;;10257412;28;20044;-69
2021/10/15 13:05:27;;;;;;;53.25;35.75;;;;;;;;;;10257427;28;20033;-68
2021/10/15 13:10:27;;;;;;;43.25;34.25;;;;;;;;;;10256934;28;20045;-69
2021/10/15 13:15:28;;;;;;;52.45;38.33;;;;;;;;;;10257350;28;20067;-68
2021/10/15 13:20:26;;;;;;;46.08;34.22;;;;;;;;;;10255756;28;20041;-69
2021/10/15 13:25:25;;;;;;;45.53;33.85;;;;;;;;;;10257289;28;20536;-69
2021/10/15 13:30:24;;;;;;;57.38;37.38;;;;;;;;;;10255625;28;20065;-69
2021/10/15 13:35:26;;;;;;;54.67;39.95;;;;;;;;;;10254567;28;20482;-70
2021/10/15 13:40:27;;;;;;;44.05;34.90;;;;;;;;;;10255037;28;20462;-69
2021/10/15 13:45:39;;;;;;;38.20;28.95;;;;;;;;;;10256422;28;20044;-68
2021/10/15 13:50:40;;;;;;;43.60;32.25;;;;;;;;;;10253838;28;20594;-69
2021/10/15 13:55:44;;;;;;;52.10;39.95;;;;;;;;;;10254821;28;20069;-69
2021/10/15 14:00:45;;;;;;;50.47;38.72;;;;;;;;;;10254796;28;20477;-68
2021/10/15 14:05:45;;;;;;;51.75;39.42;;;;;;;;;;10254691;28;20421;-69
2021/10/15 14:10:43;;;;;;;39.83;30.63;;;;;;;;;;10254452;28;20052;-69
2021/10/15 14:15:41;;;;;;;75.35;52.35;;;;;;;;;;10252218;28;20089;-68
2021/10/15 14:20:40;;;;;;;75.50;53.65;;;;;;;;;;10277081;28;20044;-69
2021/10/15 14:25:40;;;;;;;70.03;47.38;;;;;;;;;;10257127;28;20421;-68
2021/10/15 14:30:38;;;;;;;61.65;44.90;;;;;;;;;;10257482;28;20533;-69
2021/10/15 14:35:41;;;;;;;60.20;40.28;;;;;;;;;;10252352;28;21189;-69
2021/10/15 14:40:44;;;;;;;51.65;34.90;;;;;;;;;;10252596;28;20081;-69
2021/10/15 14:45:43;;;;;;;64.25;44.70;;;;;;;;;;10254663;28;20541;-68
2021/10/15 14:50:41;;;;;;;54.67;38.25;;;;;;;;;;10265043;28;20038;-69
2021/10/15 14:55:39;;;;;;;40.03;29.15;;;;;;;;;;10254170;28;20078;-69
2021/10/15 15:00:40;;;;;;;40.88;26.90;;;;;;;;;;10248148;28;20069;-69
2021/10/15 15:05:38;;;;;;;39.22;31.55;;;;;;;;;;10247353;28;20076;-68
2021/10/15 15:10:38;;;;;;;46.03;33.38;;;;;;;;;;10248564;28;20061;-70
2021/10/15 15:15:36;;;;;;;46.13;32.60;;;;;;;;;;10252488;28;20459;-69
2021/10/15 15:20:36;;;;;;;35.42;27.05;;;;;;;;;;10252597;28;20069;-69
2021/10/15 15:25:41;;;;;;;34.53;27.85;;;;;;;;;;10263573;28;20045;-69
2021/10/15 15:30:39;;;;;;;36.80;27.80;;;;;;;;;;10256497;28;20042;-69
2021/10/15 15:35:39;;;;;;;38.47;29.92;;;;;;;;;;10261203;28;20069;-68
2021/10/15 15:40:38;;;;;;;41.90;35.65;;;;;;;;;;10259564;28;20076;-69
2021/10/15 15:45:39;;;;;;;40.92;29.95;;;;;;;;;;10256650;28;20076;-69
2021/10/15 15:50:39;;;;;;;45.88;33.90;;;;;;;;;;10244458;28;20073;-70
2021/10/15 15:55:38;;;;;;;40.90;30.35;;;;;;;;;;10245617;28;20777;-70
2021/10/15 16:00:36;;;;;;;36.75;28.73;;;;;;;;;;10267500;28;20114;-70
2021/10/15 16:05:35;;;;;;;44.33;33.13;;;;;;;;;;10256772;28;20501;-70
2021/10/15 16:10:34;;;;;;;35.35;28.73;;;;;;;;;;10259057;28;20521;-71
2021/10/15 16:15:33;;;;;;;32.38;27.65;;;;;;;;;;10258418;28;20080;-70
2021/10/15 16:20:32;;;;;;;36.53;27.92;;;;;;;;;;10258577;28;20442;-69
2021/10/15 16:25:31;;;;;;;34.63;27.20;;;;;;;;;;10257671;28;20052;-63
2021/10/15 16:30:32;;;;;;;41.55;29.60;;;;;;;;;;10249852;28;20065;-64
2021/10/15 16:35:30;;;;;;;40.60;30.90;;;;;;;;;;10246972;28;20450;-64
2021/10/15 16:40:28;;;;;;;40.97;33.22;;;;;;;;;;10247870;28;20494;-64
2021/10/15 16:45:27;;;;;;;39.63;27.90;;;;;;;;;;10246784;28;20060;-63
2021/10/15 16:50:28;;;;;;;32.40;26.20;;;;;;;;;;10245776;28;20099;-64
2021/10/15 16:55:27;;;;;;;37.75;28.10;;;;;;;;;;10246860;28;20076;-64
2021/10/15 17:00:25;;;;;;;30.23;23.25;;;;;;;;;;10253037;28;20057;-63
2021/10/15 17:05:24;;;;;;;35.92;25.65;;;;;;;;;;10241106;28;20076;-64
2021/10/15 17:10:24;;;;;;;29.00;25.00;;;;;;;;;;10242758;28;20164;-64
2021/10/15 17:15:22;;;;;;;36.95;24.92;;;;;;;;;;10237214;28;20077;-63
2021/10/15 17:20:21;;;;;;;33.58;25.48;;;;;;;;;;10252171;28;20447;-63
2021/10/15 17:25:19;;;;;;;38.88;28.30;;;;;;;;;;10248760;28;20483;-64
2021/10/15 17:30:22;;;;;;;35.90;27.25;;;;;;;;;;10251422;28;20112;-64
2021/10/15 17:35:20;;;;;;;31.52;26.13;;;;;;;;;;10245363;28;20511;-63
2021/10/15 17:40:19;;;;;;;30.48;24.08;;;;;;;;;;10244280;28;20073;-64
2021/10/15 17:45:19;;;;;;;32.53;25.00;;;;;;;;;;10245315;28;20479;-65
2021/10/15 17:50:17;;;;;;;31.23;24.55;;;;;;;;;;10247619;28;20080;-64
2021/10/15 17:55:15;;;;;;;37.42;25.48;;;;;;;;;;10248480;28;20084;-64
2021/10/15 18:00:16;;;;;;;37.28;27.58;;;;;;;;;;10246626;28;20097;-65
2021/10/15 18:05:16;;;;;;;36.45;26.88;;;;;;;;;;10241575;28;20077;-64
2021/10/15 18:10:14;;;;;;;34.53;26.27;;;;;;;;;;10243925;28;20061;-64
2021/10/15 18:15:12;;;;;;;32.60;25.02;;;;;;;;;;10242657;28;20072;-64
2021/10/15 18:20:12;;;;;;;37.33;27.20;;;;;;;;;;10241346;28;20065;-64
2021/10/15 18:25:12;;;;;;;29.13;23.80;;;;;;;;;;10235834;28;20080;-62
2021/10/15 18:30:10;;;;;;;30.58;24.77;;;;;;;;;;10246641;28;20084;-63
2021/10/15 18:35:09;;;;;;;30.00;23.63;;;;;;;;;;10245857;28;20079;-64
2021/10/15 18:40:08;;;;;;;29.73;23.52;;;;;;;;;;10239742;28;20085;-61
2021/10/15 18:45:09;;;;;;;28.92;22.70;;;;;;;;;;10244290;28;20079;-62
2021/10/15 18:50:08;;;;;;;32.40;23.25;;;;;;;;;;10246396;28;21167;-63
2021/10/15 18:55:08;;;;;;;26.02;20.95;;;;;;;;;;10242803;28;20072;-62
2021/10/15 19:00:08;;;;;;;24.80;20.23;;;;;;;;;;10236243;28;20353;-62
2021/10/15 19:05:07;;;;;;;27.52;22.27;;;;;;;;;;10254852;28;20143;-61
2021/10/15 19:10:06;;;;;;;26.90;20.08;;;;;;;;;;10249347;28;20073;-63
2021/10/15 19:15:05;;;;;;;26.35;21.25;;;;;;;;;;10249678;28;20073;-65
2021/10/15 19:20:07;;;;;;;27.15;21.05;;;;;;;;;;10246746;28;20091;-63
2021/10/15 19:25:07;;;;;;;26.15;21.75;;;;;;;;;;10256800;28;20068;-64
2021/10/15 19:30:06;;;;;;;27.05;19.80;;;;;;;;;;10253083;28;20065;-63
2021/10/15 19:35:05;;;;;;;26.60;21.27;;;;;;;;;;10244153;28;20073;-65
2021/10/15 19:40:05;;;;;;;30.20;20.10;;;;;;;;;;10250839;28;20073;-65
2021/10/15 19:45:06;;;;;;;22.80;20.08;;;;;;;;;;10252724;28;20073;-63
2021/10/15 19:50:05;;;;;;;24.92;20.17;;;;;;;;;;10260848;28;20076;-63
2021/10/15 19:55:05;;;;;;;28.38;20.55;;;;;;;;;;10254298;28;20064;-64
2021/10/15 20:00:04;;;;;;;27.73;18.75;;;;;;;;;;10255263;28;20450;-64
2021/10/15 20:05:08;;;;;;;35.97;20.77;;;;;;;;;;10270358;28;20471;-64
2021/10/15 20:10:08;;;;;;;22.27;18.83;;;;;;;;;;10251506;28;20075;-64
2021/10/15 20:15:07;;;;;;;22.83;18.83;;;;;;;;;;10253243;28;20095;-62
2021/10/15 20:20:06;;;;;;;26.77;18.75;;;;;;;;;;10252712;28;20136;-63
2021/10/15 20:25:05;;;;;;;28.10;18.05;;;;;;;;;;10250155;28;20064;-65
2021/10/15 20:30:06;;;;;;;23.08;17.70;;;;;;;;;;10249375;28;20471;-64
2021/10/15 20:35:05;;;;;;;21.48;17.77;;;;;;;;;;10247693;28;20073;-63
2021/10/15 20:40:04;;;;;;;26.42;19.20;;;;;;;;;;10244590;28;20080;-64
2021/10/15 20:45:03;;;;;;;21.00;17.10;;;;;;;;;;10239950;28;20072;-64
2021/10/15 20:50:03;;;;;;;22.17;17.00;;;;;;;;;;10253249;28;20135;-65
2021/10/15 20:55:01;;;;;;;23.25;17.58;;;;;;;;;;10250021;28;20084;-65
2021/10/15 21:00:00;;;;;;;21.35;18.15;;;;;;;;;;10271673;28;20071;-64
2021/10/15 21:04:58;;;;;;;24.23;18.45;;;;;;;;;;10296825;28;20076;-62
2021/10/15 21:09:58;;;;;;;24.50;18.15;;;;;;;;;;10298177;28;20071;-64
2021/10/15 21:14:56;;;;;;;22.60;17.40;;;;;;;;;;10280642;28;20486;-62
2021/10/15 21:19:54;;;;;;;22.63;16.58;;;;;;;;;;10281408;28;20072;-63
2021/10/15 21:24:53;;;;;;;19.77;16.17;;;;;;;;;;10283655;28;20107;-64
2021/10/15 21:29:52;;;;;;;18.08;15.75;;;;;;;;;;10309089;28;20079;-64
2021/10/15 21:34:51;;;;;;;20.10;16.42;;;;;;;;;;10313804;28;20074;-63
2021/10/15 21:39:49;;;;;;;22.40;15.75;;;;;;;;;;10293877;28;20519;-65
2021/10/15 21:44:47;;;;;;;24.20;17.42;;;;;;;;;;10291871;28;20093;-64
2021/10/15 21:49:47;;;;;;;22.58;15.77;;;;;;;;;;10299862;28;20458;-64
2021/10/15 21:54:45;;;;;;;19.52;16.05;;;;;;;;;;10293824;28;20075;-64
2021/10/15 21:59:44;;;;;;;20.13;16.00;;;;;;;;;;10291331;28;20068;-64
2021/10/15 22:04:42;;;;;;;21.92;14.93;;;;;;;;;;10295312;28;20512;-64
2021/10/15 22:09:42;;;;;;;22.88;15.93;;;;;;;;;;10296578;28;20470;-65
2021/10/15 22:14:42;;;;;;;17.42;15.57;;;;;;;;;;10298329;28;20079;-64
2021/10/15 22:19:41;;;;;;;20.52;15.65;;;;;;;;;;10296370;28;20072;-64
2021/10/15 22:24:39;;;;;;;26.17;16.75;;;;;;;;;;10308233;28;20064;-64
2021/10/15 22:29:39;;;;;;;20.13;15.38;;;;;;;;;;10313733;28;20095;-64
2021/10/15 22:34:37;;;;;;;20.58;16.17;;;;;;;;;;10293741;28;20072;-64
2021/10/15 22:39:35;;;;;;;22.48;15.93;;;;;;;;;;10301862;28;20090;-63
2021/10/15 22:44:33;;;;;;;20.77;16.77;;;;;;;;;;10307520;28;20083;-64
2021/10/15 22:49:33;;;;;;;23.60;16.70;;;;;;;;;;10304189;28;20064;-65
2021/10/15 22:54:31;;;;;;;21.88;17.55;;;;;;;;;;10302885;28;20083;-65
2021/10/15 22:59:30;;;;;;;21.73;17.27;;;;;;;;;;10305032;28;20116;-65
2021/10/15 23:04:30;;;;;;;26.88;19.35;;;;;;;;;;10304093;28;20063;-64
2021/10/15 23:09:30;;;;;;;22.75;18.05;;;;;;;;;;10315750;28;20080;-64
2021/10/15 23:14:28;;;;;;;24.77;18.42;;;;;;;;;;10320306;28;20063;-65
2021/10/15 23:19:28;;;;;;;20.90;18.70;;;;;;;;;;10302367;28;20068;-65
2021/10/15 23:24:26;;;;;;;24.55;19.10;;;;;;;;;;10318590;28;20060;-64
2021/10/15 23:29:26;;;;;;;24.98;16.90;;;;;;;;;;10320113;28;20470;-64
2021/10/15 23:34:24;;;;;;;24.35;17.75;;;;;;;;;;10300541;28;20068;-64
2021/10/15 23:39:22;;;;;;;23.52;18.63;;;;;;;;;;10299387;28;20084;-64
2021/10/15 23:44:21;;;;;;;28.17;18.77;;;;;;;;;;10299158;28;20072;-64
2021/10/15 23:49:20;;;;;;;32.42;17.17;;;;;;;;;;10315934;28;20071;-64
2021/10/15 23:54:19;;;;;;;20.38;16.67;;;;;;;;;;10317535;28;20071;-64
2021/10/15 23:59:17;;;;;;;28.88;18.58;;;;;;;;;;10303707;28;20083;-64
